Time,TemperatureF,DewpointF,PressureIn,WindDirection,WindDirectionDegrees,WindSpeedMPH,WindSpeedGustMPH,Humidity,HourlyPrecipIn,Conditions,Clouds,dailyrainin,SoftwareType,DateUTC
2013-01-20 00:05:00,21.1,18.6,30.50,West,267,0.0,2.0,90,0.00,,,0.00,Wunderground v.1.15,2013-01-20 07:05:00,
2013-01-20 00:11:00,21.1,18.9,30.50,West,267,0.0,1.0,91,0.00,,,0.00,Wunderground v.1.15,2013-01-20 07:11:00,
2013-01-20 00:16:00,21.4,19.4,30.50,West,267,0.0,1.0,92,0.00,,,0.00,Wunderground v.1.15,2013-01-20 07:16:00,
2013-01-20 00:22:00,21.8,19.8,30.51,West,267,0.0,2.0,92,0.00,,,0.00,Wunderground v.1.15,2013-01-20 07:22:00,
2013-01-20 00:28:00,21.8,19.6,30.50,West,267,0.0,2.0,91,0.00,,,0.00,Wunderground v.1.15,2013-01-20 07:28:00,
2013-01-20 00:33:00,21.9,19.7,30.51,West,267,0.0,0.0,91,0.00,,,0.00,Wunderground v.1.15,2013-01-20 07:33:00,
2013-01-20 00:39:00,21.9,19.7,30.51,West,267,0.0,0.0,91,0.00,,,0.00,Wunderground v.1.15,2013-01-20 07:39:00,
2013-01-20 00:45:00,21.9,19.7,30.50,West,267,0.0,0.0,91,0.00,,,0.00,Wunderground v.1.15,2013-01-20 07:45:00,
2013-01-20 00:50:00,21.9,19.7,30.50,West,267,0.0,0.0,91,0.00,,,0.00,Wunderground v.1.15,2013-01-20 07:50:00,
2013-01-20 00:56:00,22.0,19.5,30.50,West,267,0.0,0.0,90,0.00,,,0.00,Wunderground v.1.15,2013-01-20 07:56:00,
2013-01-20 01:01:00,21.8,19.3,30.50,West,267,0.0,1.0,90,0.00,,,0.00,Wunderground v.1.15,2013-01-20 08:01:00,
2013-01-20 01:06:00,21.7,19.2,30.51,West,267,0.0,1.0,90,0.00,,,0.00,Wunderground v.1.15,2013-01-20 08:06:00,
2013-01-20 01:12:00,21.6,19.1,30.50,West,267,0.0,0.0,90,0.00,,,0.00,Wunderground v.1.15,2013-01-20 08:12:00,
2013-01-20 01:18:00,21.5,19.3,30.51,West,267,0.0,0.0,91,0.00,,,0.00,Wunderground v.1.15,2013-01-20 08:18:00,
2013-01-20 01:24:00,21.5,19.3,30.51,West,267,0.0,0.0,91,0.00,,,0.00,Wunderground v.1.15,2013-01-20 08:24:00,
2013-01-20 01:30:00,21.6,19.4,30.51,West,267,0.0,0.0,91,0.00,,,0.00,Wunderground v.1.15,2013-01-20 08:30:00,
2013-01-20 01:35:00,21.8,19.8,30.51,West,267,0.0,1.0,92,0.00,,,0.00,Wunderground v.1.15,2013-01-20 08:35:00,
2013-01-20 01:41:00,22.0,19.8,30.51,West,267,0.0,0.0,91,0.00,,,0.00,Wunderground v.1.15,2013-01-20 08:41:00,
2013-01-20 01:47:00,21.9,19.4,30.51,West,267,0.0,0.0,90,0.00,,,0.00,Wunderground v.1.15,2013-01-20 08:47:00,
2013-01-20 01:52:00,21.7,19.2,30.51,West,267,0.0,0.0,90,0.00,,,0.00,Wunderground v.1.15,2013-01-20 08:52:00,
2013-01-20 01:58:00,21.5,19.0,30.51,West,267,0.0,0.0,90,0.00,,,0.00,Wunderground v.1.15,2013-01-20 08:58:00,
2013-01-20 02:04:00,21.4,18.9,30.51,West,267,0.0,0.0,90,0.00,,,0.00,Wunderground v.1.15,2013-01-20 09:04:00,
2013-01-20 02:10:00,21.5,19.0,30.51,West,267,0.0,0.0,90,0.00,,,0.00,Wunderground v.1.15,2013-01-20 09:10:00,
2013-01-20 02:15:00,21.2,18.7,30.51,West,267,0.0,0.0,90,0.00,,,0.00,Wunderground v.1.15,2013-01-20 09:15:00,
2013-01-20 02:21:00,21.1,18.6,30.52,West,267,0.0,0.0,90,0.00,,,0.00,Wunderground v.1.15,2013-01-20 09:21:00,
2013-01-20 02:27:00,20.8,18.3,30.52,West,267,0.0,0.0,90,0.00,,,0.00,Wunderground v.1.15,2013-01-20 09:27:00,
2013-01-20 02:33:00,20.7,18.2,30.52,West,267,0.0,0.0,90,0.00,,,0.00,Wunderground v.1.15,2013-01-20 09:33:00,
2013-01-20 02:39:00,20.7,18.5,30.52,West,267,0.0,0.0,91,0.00,,,0.00,Wunderground v.1.15,2013-01-20 09:39:00,
2013-01-20 02:45:00,20.6,18.4,30.52,West,267,0.0,0.0,91,0.00,,,0.00,Wunderground v.1.15,2013-01-20 09:45:00,
2013-01-20 02:51:00,20.7,18.5,30.52,West,267,0.0,0.0,91,0.00,,,0.00,Wunderground v.1.15,2013-01-20 09:51:00,
2013-01-20 02:56:00,20.8,18.6,30.53,West,267,0.0,0.0,91,0.00,,,0.00,Wunderground v.1.15,2013-01-20 09:56:00,
2013-01-20 03:01:00,20.8,18.6,30.53,West,267,0.0,1.0,91,0.00,,,0.00,Wunderground v.1.15,2013-01-20 10:01:00,
2013-01-20 03:06:00,20.6,18.1,30.53,West,267,0.0,1.0,90,0.00,,,0.00,Wunderground v.1.15,2013-01-20 10:06:00,
2013-01-20 03:12:00,20.5,18.3,30.53,West,267,0.0,0.0,91,0.00,,,0.00,Wunderground v.1.15,2013-01-20 10:12:00,
2013-01-20 03:18:00,20.5,18.3,30.53,West,267,0.0,0.0,91,0.00,,,0.00,Wunderground v.1.15,2013-01-20 10:18:00,
2013-01-20 03:23:00,20.4,18.2,30.53,West,267,0.0,0.0,91,0.00,,,0.00,Wunderground v.1.15,2013-01-20 10:23:00,
2013-01-20 03:29:00,20.2,17.7,30.53,West,267,0.0,1.0,90,0.00,,,0.00,Wunderground v.1.15,2013-01-20 10:29:00,
2013-01-20 03:35:00,20.2,18.0,30.53,West,267,0.0,0.0,91,0.00,,,0.00,Wunderground v.1.15,2013-01-20 10:35:00,
2013-01-20 03:40:00,20.1,17.9,30.53,West,267,0.0,0.0,91,0.00,,,0.00,Wunderground v.1.15,2013-01-20 10:40:00,
2013-01-20 03:45:00,20.0,17.8,30.53,West,267,0.0,0.0,91,0.00,,,0.00,Wunderground v.1.15,2013-01-20 10:45:00,
2013-01-20 03:51:00,20.0,17.8,30.53,West,267,0.0,0.0,91,0.00,,,0.00,Wunderground v.1.15,2013-01-20 10:51:00,
2013-01-20 03:57:00,19.9,17.7,30.53,West,267,0.0,1.0,91,0.00,,,0.00,Wunderground v.1.15,2013-01-20 10:57:00,
2013-01-20 04:03:00,19.8,17.6,30.53,West,267,0.0,0.0,91,0.00,,,0.00,Wunderground v.1.15,2013-01-20 11:03:00,
2013-01-20 04:08:00,19.9,18.0,30.53,West,267,0.0,1.0,92,0.00,,,0.00,Wunderground v.1.15,2013-01-20 11:08:00,
2013-01-20 04:14:00,20.0,18.1,30.53,West,267,0.0,0.0,92,0.00,,,0.00,Wunderground v.1.15,2013-01-20 11:14:00,
2013-01-20 04:20:00,20.1,18.1,30.53,West,267,0.0,0.0,92,0.00,,,0.00,Wunderground v.1.15,2013-01-20 11:20:00,
2013-01-20 04:25:00,20.2,18.2,30.53,West,267,0.0,1.0,92,0.00,,,0.00,Wunderground v.1.15,2013-01-20 11:25:00,
2013-01-20 04:31:00,20.1,17.9,30.53,West,267,0.0,0.0,91,0.00,,,0.00,Wunderground v.1.15,2013-01-20 11:31:00,
2013-01-20 04:36:00,20.1,18.1,30.53,West,267,0.0,0.0,92,0.00,,,0.00,Wunderground v.1.15,2013-01-20 11:36:00,
2013-01-20 04:41:00,20.2,18.2,30.53,West,267,0.0,0.0,92,0.00,,,0.00,Wunderground v.1.15,2013-01-20 11:41:00,
2013-01-20 04:47:00,20.3,18.3,30.53,West,267,0.0,0.0,92,0.00,,,0.00,Wunderground v.1.15,2013-01-20 11:47:00,
2013-01-20 04:53:00,19.8,17.3,30.54,West,267,0.0,1.0,90,0.00,,,0.00,Wunderground v.1.15,2013-01-20 11:53:00,
2013-01-20 04:58:00,19.3,16.3,30.54,West,267,0.0,1.0,88,0.00,,,0.00,Wunderground v.1.15,2013-01-20 11:58:00,
2013-01-20 05:04:00,18.9,15.9,30.53,West,267,0.0,0.0,88,0.00,,,0.00,Wunderground v.1.15,2013-01-20 12:04:00,
2013-01-20 05:10:00,18.6,15.9,30.54,West,267,0.0,0.0,89,0.00,,,0.00,Wunderground v.1.15,2013-01-20 12:10:00,
2013-01-20 05:15:00,18.6,16.2,30.54,West,267,0.0,0.0,90,0.00,,,0.00,Wunderground v.1.15,2013-01-20 12:15:00,
2013-01-20 05:20:00,18.7,16.5,30.54,West,267,0.0,0.0,91,0.00,,,0.00,Wunderground v.1.15,2013-01-20 12:20:00,
2013-01-20 05:26:00,18.7,16.5,30.54,West,267,0.0,0.0,91,0.00,,,0.00,Wunderground v.1.15,2013-01-20 12:26:00,
2013-01-20 05:32:00,18.7,16.5,30.54,West,267,0.0,1.0,91,0.00,,,0.00,Wunderground v.1.15,2013-01-20 12:32:00,
2013-01-20 05:37:00,18.7,16.8,30.54,West,267,0.0,1.0,92,0.00,,,0.00,Wunderground v.1.15,2013-01-20 12:37:00,
2013-01-20 05:43:00,18.8,16.9,30.54,West,267,0.0,1.0,92,0.00,,,0.00,Wunderground v.1.15,2013-01-20 12:43:00,
2013-01-20 05:48:00,19.2,17.5,30.54,West,267,0.0,1.0,93,0.00,,,0.00,Wunderground v.1.15,2013-01-20 12:48:00,
2013-01-20 05:54:00,19.2,17.3,30.54,West,267,0.0,0.0,92,0.00,,,0.00,Wunderground v.1.15,2013-01-20 12:54:00,
2013-01-20 06:00:00,18.8,16.4,30.54,West,267,0.0,0.0,90,0.00,,,0.00,Wunderground v.1.15,2013-01-20 13:00:00,
2013-01-20 06:05:00,18.5,16.1,30.54,West,267,0.0,0.0,90,0.00,,,0.00,Wunderground v.1.15,2013-01-20 13:05:00,
2013-01-20 06:11:00,18.4,16.2,30.54,West,267,0.0,0.0,91,0.00,,,0.00,Wunderground v.1.15,2013-01-20 13:11:00,
2013-01-20 06:17:00,18.4,16.5,30.53,West,267,0.0,0.0,92,0.00,,,0.00,Wunderground v.1.15,2013-01-20 13:17:00,
2013-01-20 06:22:00,18.4,16.5,30.53,West,267,0.0,0.0,92,0.00,,,0.00,Wunderground v.1.15,2013-01-20 13:22:00,
2013-01-20 06:27:00,18.4,16.5,30.53,West,267,0.0,0.0,92,0.00,,,0.00,Wunderground v.1.15,2013-01-20 13:27:00,
2013-01-20 06:33:00,18.4,16.5,30.53,West,267,0.0,1.0,92,0.00,,,0.00,Wunderground v.1.15,2013-01-20 13:33:00,
2013-01-20 06:38:00,18.4,16.5,30.53,West,267,0.0,1.0,92,0.00,,,0.00,Wunderground v.1.15,2013-01-20 13:38:00,
2013-01-20 06:44:00,18.5,16.8,30.54,West,267,0.0,0.0,93,0.00,,,0.00,Wunderground v.1.15,2013-01-20 13:44:00,
2013-01-20 06:49:00,18.4,16.5,30.54,West,267,0.0,0.0,92,0.00,,,0.00,Wunderground v.1.15,2013-01-20 13:49:00,
2013-01-20 06:55:00,18.2,16.3,30.54,West,267,0.0,0.0,92,0.00,,,0.00,Wunderground v.1.15,2013-01-20 13:55:00,
2013-01-20 07:01:00,18.2,16.3,30.54,West,267,0.0,0.0,92,0.00,,,0.00,Wunderground v.1.15,2013-01-20 14:01:00,
2013-01-20 07:06:00,18.2,16.5,30.54,West,267,0.0,0.0,93,0.00,,,0.00,Wunderground v.1.15,2013-01-20 14:06:00,
2013-01-20 07:12:00,18.2,16.3,30.54,West,267,0.0,0.0,92,0.00,,,0.00,Wunderground v.1.15,2013-01-20 14:12:00,
2013-01-20 07:18:00,18.1,16.2,30.54,West,267,0.0,1.0,92,0.00,,,0.00,Wunderground v.1.15,2013-01-20 14:18:00,
2013-01-20 07:24:00,18.0,16.1,30.55,West,267,0.0,1.0,92,0.00,,,0.00,Wunderground v.1.15,2013-01-20 14:24:00,
2013-01-20 07:30:00,17.9,16.0,30.55,West,267,0.0,0.0,92,0.00,,,0.00,Wunderground v.1.15,2013-01-20 14:30:00,
2013-01-20 07:36:00,17.8,15.9,30.55,West,267,0.0,0.0,92,0.00,,,0.00,Wunderground v.1.15,2013-01-20 14:36:00,
2013-01-20 07:41:00,17.9,16.0,30.55,West,267,0.0,0.0,92,0.00,,,0.00,Wunderground v.1.15,2013-01-20 14:41:00,
2013-01-20 07:47:00,18.0,16.3,30.55,West,267,0.0,0.0,93,0.00,,,0.00,Wunderground v.1.15,2013-01-20 14:47:00,
2013-01-20 07:53:00,18.1,16.4,30.55,West,267,0.0,0.0,93,0.00,,,0.00,Wunderground v.1.15,2013-01-20 14:53:00,
2013-01-20 07:59:00,18.4,16.7,30.55,West,267,0.0,0.0,93,0.00,,,0.00,Wunderground v.1.15,2013-01-20 14:59:00,
2013-01-20 08:04:00,18.6,16.9,30.55,West,267,0.0,1.0,93,0.00,,,0.00,Wunderground v.1.15,2013-01-20 15:04:00,
2013-01-20 08:10:00,18.8,17.1,30.55,West,267,0.0,0.0,93,0.00,,,0.00,Wunderground v.1.15,2013-01-20 15:10:00,
2013-01-20 08:16:00,19.1,17.4,30.55,West,267,0.0,0.0,93,0.00,,,0.00,Wunderground v.1.15,2013-01-20 15:16:00,
2013-01-20 08:22:00,18.6,16.4,30.55,West,267,0.0,0.0,91,0.00,,,0.00,Wunderground v.1.15,2013-01-20 15:22:00,
2013-01-20 08:28:00,17.6,15.2,30.56,West,267,0.0,0.0,90,0.00,,,0.00,Wunderground v.1.15,2013-01-20 15:28:00,
2013-01-20 08:34:00,17.5,15.3,30.56,West,267,0.0,0.0,91,0.00,,,0.00,Wunderground v.1.15,2013-01-20 15:34:00,
2013-01-20 08:40:00,17.9,16.0,30.56,West,267,0.0,0.0,92,0.00,,,0.00,Wunderground v.1.15,2013-01-20 15:40:00,
2013-01-20 08:46:00,18.3,16.6,30.56,West,267,0.0,0.0,93,0.00,,,0.00,Wunderground v.1.15,2013-01-20 15:46:00,
2013-01-20 08:52:00,18.6,16.9,30.56,West,267,0.0,0.0,93,0.00,,,0.00,Wunderground v.1.15,2013-01-20 15:52:00,
2013-01-20 08:58:00,18.8,17.1,30.56,West,267,0.0,0.0,93,0.00,,,0.00,Wunderground v.1.15,2013-01-20 15:58:00,
2013-01-20 09:03:00,18.9,17.2,30.56,West,267,0.0,0.0,93,0.00,,,0.00,Wunderground v.1.15,2013-01-20 16:03:00,
2013-01-20 09:09:00,19.0,17.3,30.57,West,267,0.0,0.0,93,0.00,,,0.00,Wunderground v.1.15,2013-01-20 16:09:00,
2013-01-20 09:15:00,19.1,17.4,30.57,West,267,0.0,0.0,93,0.00,,,0.00,Wunderground v.1.15,2013-01-20 16:15:00,
2013-01-20 09:21:00,19.4,17.7,30.56,West,267,0.0,0.0,93,0.00,,,0.00,Wunderground v.1.15,2013-01-20 16:21:00,
2013-01-20 09:27:00,19.5,17.8,30.57,West,267,0.0,0.0,93,0.00,,,0.00,Wunderground v.1.15,2013-01-20 16:27:00,
2013-01-20 09:33:00,19.6,17.9,30.57,West,267,0.0,0.0,93,0.00,,,0.00,Wunderground v.1.15,2013-01-20 16:33:00,
2013-01-20 09:39:00,19.6,17.9,30.57,West,267,0.0,0.0,93,0.00,,,0.00,Wunderground v.1.15,2013-01-20 16:39:00,
2013-01-20 09:44:00,19.4,17.5,30.57,West,267,0.0,0.0,92,0.00,,,0.00,Wunderground v.1.15,2013-01-20 16:44:00,
2013-01-20 09:50:00,19.5,17.6,30.58,West,267,0.0,0.0,92,0.00,,,0.00,Wunderground v.1.15,2013-01-20 16:50:00,
2013-01-20 09:56:00,19.5,17.6,30.57,West,267,0.0,0.0,92,0.00,,,0.00,Wunderground v.1.15,2013-01-20 16:56:00,
2013-01-20 10:02:00,19.8,18.1,30.57,West,267,0.0,0.0,93,0.00,,,0.00,Wunderground v.1.15,2013-01-20 17:02:00,
2013-01-20 10:07:00,20.4,18.7,30.58,West,267,0.0,0.0,93,0.00,,,0.00,Wunderground v.1.15,2013-01-20 17:07:00,
2013-01-20 10:13:00,20.4,18.7,30.58,West,267,0.0,0.0,93,0.00,,,0.00,Wunderground v.1.15,2013-01-20 17:13:00,
2013-01-20 10:19:00,20.6,18.9,30.59,West,267,0.0,0.0,93,0.00,,,0.00,Wunderground v.1.15,2013-01-20 17:19:00,
2013-01-20 10:24:00,20.6,18.6,30.58,West,267,0.0,0.0,92,0.00,,,0.00,Wunderground v.1.15,2013-01-20 17:24:00,
2013-01-20 10:30:00,21.0,19.0,30.58,West,267,0.0,0.0,92,0.00,,,0.00,Wunderground v.1.15,2013-01-20 17:30:00,
2013-01-20 10:36:00,21.7,19.7,30.58,West,267,0.0,0.0,92,0.00,,,0.00,Wunderground v.1.15,2013-01-20 17:36:00,
2013-01-20 10:42:00,22.7,20.5,30.58,West,267,0.0,0.0,91,0.00,,,0.00,Wunderground v.1.15,2013-01-20 17:42:00,
2013-01-20 10:48:00,23.5,21.0,30.58,West,267,0.0,0.0,90,0.00,,,0.00,Wunderground v.1.15,2013-01-20 17:48:00,
2013-01-20 10:53:00,23.7,20.9,30.58,West,267,0.0,0.0,89,0.00,,,0.00,Wunderground v.1.15,2013-01-20 17:53:00,
2013-01-20 10:59:00,24.1,21.1,30.59,West,267,0.0,0.0,88,0.00,,,0.00,Wunderground v.1.15,2013-01-20 17:59:00,
2013-01-20 11:05:00,23.5,20.5,30.59,West,267,0.0,0.0,88,0.00,,,0.00,Wunderground v.1.15,2013-01-20 18:05:00,
2013-01-20 11:11:00,23.5,20.7,30.59,West,267,0.0,0.0,89,0.00,,,0.00,Wunderground v.1.15,2013-01-20 18:11:00,
2013-01-20 11:17:00,23.7,20.9,30.59,West,267,0.0,0.0,89,0.00,,,0.00,Wunderground v.1.15,2013-01-20 18:17:00,
2013-01-20 11:22:00,23.8,21.0,30.59,West,267,0.0,0.0,89,0.00,,,0.00,Wunderground v.1.15,2013-01-20 18:22:00,
2013-01-20 11:28:00,24.1,21.3,30.59,West,267,0.0,0.0,89,0.00,,,0.00,Wunderground v.1.15,2013-01-20 18:28:00,
2013-01-20 11:33:00,25.2,21.9,30.59,West,267,0.0,0.0,87,0.00,,,0.00,Wunderground v.1.15,2013-01-20 18:33:00,
2013-01-20 11:39:00,25.7,21.8,30.59,West,267,0.0,1.0,85,0.00,,,0.00,Wunderground v.1.15,2013-01-20 18:39:00,
2013-01-20 11:45:00,25.5,21.6,30.58,West,267,0.0,0.0,85,0.00,,,0.00,Wunderground v.1.15,2013-01-20 18:45:00,
2013-01-20 11:51:00,24.5,21.2,30.58,West,267,0.0,0.0,87,0.00,,,0.00,Wunderground v.1.15,2013-01-20 18:51:00,
2013-01-20 11:57:00,24.2,20.9,30.58,West,267,0.0,1.0,87,0.00,,,0.00,Wunderground v.1.15,2013-01-20 18:57:00,
2013-01-20 12:02:00,24.5,21.2,30.57,WSW,258,0.0,2.0,87,0.00,,,0.00,Wunderground v.1.15,2013-01-20 19:02:00,
2013-01-20 12:08:00,26.0,21.3,30.58,SSW,204,1.0,3.0,82,0.00,,,0.00,Wunderground v.1.15,2013-01-20 19:08:00,
2013-01-20 12:14:00,26.6,21.8,30.57,SSW,204,1.0,2.0,82,0.00,,,0.00,Wunderground v.1.15,2013-01-20 19:14:00,
2013-01-20 12:20:00,26.9,21.3,30.58,SSW,204,0.0,0.0,79,0.00,,,0.00,Wunderground v.1.15,2013-01-20 19:20:00,
2013-01-20 12:26:00,26.8,22.0,30.57,SSW,204,0.0,1.0,82,0.00,,,0.00,Wunderground v.1.15,2013-01-20 19:26:00,
2013-01-20 12:31:00,26.3,22.4,30.57,SSW,204,0.0,0.0,85,0.00,,,0.00,Wunderground v.1.15,2013-01-20 19:31:00,
2013-01-20 12:37:00,26.6,21.6,30.57,SSW,204,1.0,2.0,81,0.00,,,0.00,Wunderground v.1.15,2013-01-20 19:37:00,
2013-01-20 12:43:00,26.9,21.6,30.56,SSW,204,1.0,2.0,80,0.00,,,0.00,Wunderground v.1.15,2013-01-20 19:43:00,
2013-01-20 12:49:00,27.2,21.5,30.56,SSW,204,1.0,2.0,79,0.00,,,0.00,Wunderground v.1.15,2013-01-20 19:49:00,
2013-01-20 12:54:00,27.5,21.2,30.56,SSW,204,1.0,2.0,77,0.00,,,0.00,Wunderground v.1.15,2013-01-20 19:54:00,
2013-01-20 13:00:00,27.5,21.8,30.56,SSW,203,1.0,1.0,79,0.00,,,0.00,Wunderground v.1.15,2013-01-20 20:00:00,
2013-01-20 13:05:00,27.9,21.6,30.56,SSW,204,0.0,1.0,77,0.00,,,0.00,Wunderground v.1.15,2013-01-20 20:05:00,
2013-01-20 13:11:00,28.5,21.9,30.56,SSW,204,0.0,0.0,76,0.00,,,0.00,Wunderground v.1.15,2013-01-20 20:11:00,
2013-01-20 13:17:00,28.4,22.4,30.56,SSW,204,1.0,2.0,78,0.00,,,0.00,Wunderground v.1.15,2013-01-20 20:17:00,
2013-01-20 13:23:00,28.8,22.2,30.56,SSW,204,0.0,0.0,76,0.00,,,0.00,Wunderground v.1.15,2013-01-20 20:23:00,
2013-01-20 13:29:00,28.3,23.2,30.56,SSW,204,0.0,0.0,81,0.00,,,0.00,Wunderground v.1.15,2013-01-20 20:29:00,
2013-01-20 13:35:00,28.5,22.5,30.56,SSW,204,0.0,0.0,78,0.00,,,0.00,Wunderground v.1.15,2013-01-20 20:35:00,
2013-01-20 13:40:00,28.5,23.1,30.55,SSW,204,0.0,0.0,80,0.00,,,0.00,Wunderground v.1.15,2013-01-20 20:40:00,
2013-01-20 13:46:00,28.2,23.4,30.55,SSW,204,0.0,0.0,82,0.00,,,0.00,Wunderground v.1.15,2013-01-20 20:46:00,
2013-01-20 13:52:00,28.4,23.6,30.55,SSW,204,0.0,0.0,82,0.00,,,0.00,Wunderground v.1.15,2013-01-20 20:52:00,
2013-01-20 13:58:00,28.4,23.0,30.55,SSW,204,0.0,0.0,80,0.00,,,0.00,Wunderground v.1.15,2013-01-20 20:58:00,
2013-01-20 14:04:00,28.5,23.1,30.55,SSW,204,0.0,0.0,80,0.00,,,0.00,Wunderground v.1.15,2013-01-20 21:04:00,
2013-01-20 14:10:00,28.3,23.5,30.55,SSW,204,0.0,0.0,82,0.00,,,0.00,Wunderground v.1.15,2013-01-20 21:10:00,
2013-01-20 14:15:00,28.6,23.5,30.54,SSW,204,0.0,0.0,81,0.00,,,0.00,Wunderground v.1.15,2013-01-20 21:15:00,
2013-01-20 14:21:00,28.5,24.0,30.54,SSW,204,0.0,0.0,83,0.00,,,0.00,Wunderground v.1.15,2013-01-20 21:21:00,
2013-01-20 14:27:00,28.4,23.6,30.54,SSW,204,0.0,1.0,82,0.00,,,0.00,Wunderground v.1.15,2013-01-20 21:27:00,
2013-01-20 14:33:00,28.8,23.4,30.54,SSW,204,0.0,0.0,80,0.00,,,0.00,Wunderground v.1.15,2013-01-20 21:33:00,
2013-01-20 14:38:00,28.5,23.4,30.54,SSW,204,0.0,0.0,81,0.00,,,0.00,Wunderground v.1.15,2013-01-20 21:38:00,
2013-01-20 14:44:00,28.1,23.3,30.54,SSW,204,0.0,0.0,82,0.00,,,0.00,Wunderground v.1.15,2013-01-20 21:44:00,
2013-01-20 14:49:00,28.6,23.5,30.54,SSW,204,0.0,0.0,81,0.00,,,0.00,Wunderground v.1.15,2013-01-20 21:49:00,
2013-01-20 14:55:00,29.3,23.9,30.54,SSW,204,0.0,0.0,80,0.00,,,0.00,Wunderground v.1.15,2013-01-20 21:55:00,
2013-01-20 15:01:00,29.3,24.2,30.53,SSW,204,0.0,0.0,81,0.00,,,0.00,Wunderground v.1.15,2013-01-20 22:01:00,
2013-01-20 15:07:00,29.3,23.9,30.53,SSW,204,0.0,0.0,80,0.00,,,0.00,Wunderground v.1.15,2013-01-20 22:07:00,
2013-01-20 15:13:00,29.3,24.2,30.54,SSW,204,0.0,0.0,81,0.00,,,0.00,Wunderground v.1.15,2013-01-20 22:13:00,
2013-01-20 15:18:00,29.3,24.2,30.53,SSW,204,0.0,0.0,81,0.00,,,0.00,Wunderground v.1.15,2013-01-20 22:18:00,
2013-01-20 15:24:00,29.5,23.2,30.53,SSW,204,0.0,0.0,77,0.00,,,0.00,Wunderground v.1.15,2013-01-20 22:24:00,
2013-01-20 15:30:00,29.4,23.7,30.53,SSW,204,0.0,0.0,79,0.00,,,0.00,Wunderground v.1.15,2013-01-20 22:30:00,
2013-01-20 15:35:00,29.4,24.0,30.54,SSW,204,0.0,0.0,80,0.00,,,0.00,Wunderground v.1.15,2013-01-20 22:35:00,
2013-01-20 15:41:00,29.4,24.3,30.53,SSW,204,0.0,0.0,81,0.00,,,0.00,Wunderground v.1.15,2013-01-20 22:41:00,
2013-01-20 15:46:00,29.2,23.8,30.53,SSW,204,0.0,0.0,80,0.00,,,0.00,Wunderground v.1.15,2013-01-20 22:46:00,
2013-01-20 15:52:00,29.1,24.3,30.53,SSW,204,0.0,0.0,82,0.00,,,0.00,Wunderground v.1.15,2013-01-20 22:52:00,
2013-01-20 15:58:00,29.5,23.5,30.53,SSW,204,0.0,0.0,78,0.00,,,0.00,Wunderground v.1.15,2013-01-20 22:58:00,
2013-01-20 16:04:00,29.5,23.5,30.53,SSW,204,0.0,0.0,78,0.00,,,0.00,Wunderground v.1.15,2013-01-20 23:04:00,
2013-01-20 16:10:00,29.2,23.2,30.53,SSW,204,0.0,0.0,78,0.00,,,0.00,Wunderground v.1.15,2013-01-20 23:10:00,
2013-01-20 16:15:00,29.3,22.7,30.53,SSW,204,0.0,0.0,76,0.00,,,0.00,Wunderground v.1.15,2013-01-20 23:15:00,
2013-01-20 16:21:00,29.7,23.1,30.53,SSW,204,0.0,0.0,76,0.00,,,0.00,Wunderground v.1.15,2013-01-20 23:21:00,
2013-01-20 16:27:00,29.4,23.4,30.53,SSW,204,0.0,0.0,78,0.00,,,0.00,Wunderground v.1.15,2013-01-20 23:27:00,
2013-01-20 16:33:00,29.3,23.6,30.53,SSW,204,0.0,0.0,79,0.00,,,0.00,Wunderground v.1.15,2013-01-20 23:33:00,
2013-01-20 16:39:00,29.2,23.5,30.53,SSW,204,0.0,0.0,79,0.00,,,0.00,Wunderground v.1.15,2013-01-20 23:39:00,
2013-01-20 16:44:00,29.1,23.4,30.53,SSW,204,0.0,0.0,79,0.00,,,0.00,Wunderground v.1.15,2013-01-20 23:44:00,
2013-01-20 16:49:00,29.0,23.0,30.53,SSW,204,0.0,0.0,78,0.00,,,0.00,Wunderground v.1.15,2013-01-20 23:49:00,
2013-01-20 16:55:00,29.0,23.3,30.52,SSW,204,0.0,0.0,79,0.00,,,0.00,Wunderground v.1.15,2013-01-20 23:55:00,
2013-01-20 17:00:00,28.9,22.9,30.52,SSW,204,0.0,0.0,78,0.00,,,0.00,Wunderground v.1.15,2013-01-21 00:00:00,
2013-01-20 17:06:00,28.8,23.1,30.52,SSW,204,0.0,0.0,79,0.00,,,0.00,Wunderground v.1.15,2013-01-21 00:06:00,
2013-01-20 17:12:00,28.9,23.2,30.52,SSW,204,0.0,0.0,79,0.00,,,0.00,Wunderground v.1.15,2013-01-21 00:12:00,
2013-01-20 17:18:00,28.9,22.9,30.52,SSW,204,0.0,0.0,78,0.00,,,0.00,Wunderground v.1.15,2013-01-21 00:18:00,
2013-01-20 17:24:00,28.9,22.6,30.53,SSW,204,0.0,0.0,77,0.00,,,0.00,Wunderground v.1.15,2013-01-21 00:24:00,
2013-01-20 17:29:00,28.8,22.5,30.53,SSW,204,0.0,0.0,77,0.00,,,0.00,Wunderground v.1.15,2013-01-21 00:29:00,
2013-01-20 17:34:00,28.8,22.8,30.53,SSW,204,0.0,0.0,78,0.00,,,0.00,Wunderground v.1.15,2013-01-21 00:34:00,
2013-01-20 17:40:00,28.7,22.1,30.53,SSW,204,0.0,0.0,76,0.00,,,0.00,Wunderground v.1.15,2013-01-21 00:40:00,
2013-01-20 17:46:00,28.6,22.3,30.53,SSW,204,0.0,0.0,77,0.00,,,0.00,Wunderground v.1.15,2013-01-21 00:46:00,
2013-01-20 17:52:00,28.4,22.1,30.53,SSW,204,0.0,0.0,77,0.00,,,0.00,Wunderground v.1.15,2013-01-21 00:52:00,
2013-01-20 17:57:00,28.3,22.3,30.53,SSW,204,0.0,0.0,78,0.00,,,0.00,Wunderground v.1.15,2013-01-21 00:57:00,
2013-01-20 18:02:00,28.1,21.8,30.53,SSW,204,0.0,0.0,77,0.00,,,0.00,Wunderground v.1.15,2013-01-21 01:02:00,
2013-01-20 18:08:00,28.0,21.7,30.53,SSW,203,0.0,0.0,77,0.00,,,0.00,Wunderground v.1.15,2013-01-21 01:08:00,
2013-01-20 18:14:00,28.0,22.0,30.52,SSW,204,0.0,0.0,78,0.00,,,0.00,Wunderground v.1.15,2013-01-21 01:14:00,
2013-01-20 18:20:00,27.9,22.2,30.53,SSW,204,0.0,0.0,79,0.00,,,0.00,Wunderground v.1.15,2013-01-21 01:20:00,
2013-01-20 18:26:00,27.7,22.0,30.53,SSW,204,0.0,0.0,79,0.00,,,0.00,Wunderground v.1.15,2013-01-21 01:26:00,
2013-01-20 18:32:00,27.5,21.8,30.53,SSW,204,0.0,0.0,79,0.00,,,0.00,Wunderground v.1.15,2013-01-21 01:32:00,
2013-01-20 18:37:00,27.4,22.0,30.52,SSW,204,0.0,0.0,80,0.00,,,0.00,Wunderground v.1.15,2013-01-21 01:37:00,
2013-01-20 18:43:00,27.4,21.7,30.52,SSW,204,0.0,0.0,79,0.00,,,0.00,Wunderground v.1.15,2013-01-21 01:43:00,
2013-01-20 18:49:00,27.3,22.2,30.52,SSW,204,0.0,0.0,81,0.00,,,0.00,Wunderground v.1.15,2013-01-21 01:49:00,
2013-01-20 18:54:00,27.3,22.2,30.53,SSW,204,0.0,0.0,81,0.00,,,0.00,Wunderground v.1.15,2013-01-21 01:54:00,
2013-01-20 18:59:00,27.3,21.9,30.52,SSW,204,0.0,0.0,80,0.00,,,0.00,Wunderground v.1.15,2013-01-21 01:59:00,
2013-01-20 19:05:00,27.3,22.2,30.52,SSW,204,0.0,0.0,81,0.00,,,0.00,Wunderground v.1.15,2013-01-21 02:05:00,
2013-01-20 19:11:00,27.4,22.3,30.51,SSW,204,0.0,0.0,81,0.00,,,0.00,Wunderground v.1.15,2013-01-21 02:11:00,
2013-01-20 19:16:00,27.4,22.3,30.51,SSW,204,0.0,0.0,81,0.00,,,0.00,Wunderground v.1.15,2013-01-21 02:16:00,
2013-01-20 19:22:00,27.3,22.2,30.51,SSW,204,0.0,0.0,81,0.00,,,0.00,Wunderground v.1.15,2013-01-21 02:22:00,
2013-01-20 19:27:00,27.2,22.1,30.52,SSW,204,0.0,0.0,81,0.00,,,0.00,Wunderground v.1.15,2013-01-21 02:27:00,
2013-01-20 19:32:00,27.0,21.9,30.51,SSW,204,0.0,0.0,81,0.00,,,0.00,Wunderground v.1.15,2013-01-21 02:32:00,
2013-01-20 19:38:00,26.9,21.8,30.51,SSW,204,0.0,0.0,81,0.00,,,0.00,Wunderground v.1.15,2013-01-21 02:38:00,
2013-01-20 19:44:00,26.7,21.7,30.51,SSW,204,0.0,0.0,81,0.00,,,0.00,Wunderground v.1.15,2013-01-21 02:44:00,
2013-01-20 19:50:00,26.6,21.6,30.52,SSW,204,0.0,0.0,81,0.00,,,0.00,Wunderground v.1.15,2013-01-21 02:50:00,
2013-01-20 19:55:00,26.5,21.5,30.52,SSW,204,0.0,0.0,81,0.00,,,0.00,Wunderground v.1.15,2013-01-21 02:55:00,
2013-01-20 20:01:00,26.4,21.4,30.52,SSW,204,0.0,0.0,81,0.00,,,0.00,Wunderground v.1.15,2013-01-21 03:01:00,
2013-01-20 20:06:00,26.3,21.6,30.52,SSW,204,0.0,0.0,82,0.00,,,0.00,Wunderground v.1.15,2013-01-21 03:06:00,
2013-01-20 20:12:00,26.2,21.7,30.51,SSW,204,0.0,0.0,83,0.00,,,0.00,Wunderground v.1.15,2013-01-21 03:12:00,
2013-01-20 20:17:00,26.2,21.7,30.51,SSW,204,0.0,0.0,83,0.00,,,0.00,Wunderground v.1.15,2013-01-21 03:17:00,
2013-01-20 20:22:00,26.1,21.6,30.51,SSW,204,0.0,0.0,83,0.00,,,0.00,Wunderground v.1.15,2013-01-21 03:22:00,
2013-01-20 20:28:00,26.0,21.5,30.51,SSW,204,0.0,0.0,83,0.00,,,0.00,Wunderground v.1.15,2013-01-21 03:28:00,
2013-01-20 20:34:00,25.9,21.4,30.51,SSW,204,0.0,0.0,83,0.00,,,0.00,Wunderground v.1.15,2013-01-21 03:34:00,
2013-01-20 20:40:00,25.8,21.6,30.50,SSW,204,0.0,0.0,84,0.00,,,0.00,Wunderground v.1.15,2013-01-21 03:40:00,
2013-01-20 20:45:00,25.8,21.6,30.50,SSW,204,0.0,0.0,84,0.00,,,0.00,Wunderground v.1.15,2013-01-21 03:45:00,
2013-01-20 20:51:00,25.8,21.6,30.50,SSW,204,0.0,1.0,84,0.00,,,0.00,Wunderground v.1.15,2013-01-21 03:51:00,
2013-01-20 20:57:00,25.8,21.9,30.50,SSW,204,0.0,1.0,85,0.00,,,0.00,Wunderground v.1.15,2013-01-21 03:57:00,
2013-01-20 21:03:00,25.9,23.9,30.50,SSW,204,0.0,0.0,92,0.00,,,0.00,Wunderground v.1.15,2013-01-21 04:03:00,
2013-01-20 21:09:00,25.9,22.3,30.50,SSW,204,0.0,0.0,86,0.00,,,0.00,Wunderground v.1.15,2013-01-21 04:09:00,
2013-01-20 21:15:00,25.9,22.0,30.50,SSW,204,0.0,0.0,85,0.00,,,0.00,Wunderground v.1.15,2013-01-21 04:15:00,
2013-01-20 21:21:00,25.7,21.5,30.50,SSW,204,0.0,0.0,84,0.00,,,0.00,Wunderground v.1.15,2013-01-21 04:21:00,
2013-01-20 21:26:00,25.6,21.7,30.50,SSW,204,0.0,0.0,85,0.00,,,0.00,Wunderground v.1.15,2013-01-21 04:26:00,
2013-01-20 21:32:00,25.6,21.7,30.50,SSW,204,0.0,0.0,85,0.00,,,0.00,Wunderground v.1.15,2013-01-21 04:32:00,
2013-01-20 21:38:00,25.7,21.8,30.50,SSW,204,0.0,0.0,85,0.00,,,0.00,Wunderground v.1.15,2013-01-21 04:38:00,
2013-01-20 21:44:00,25.7,21.8,30.50,SSW,204,0.0,0.0,85,0.00,,,0.00,Wunderground v.1.15,2013-01-21 04:44:00,
2013-01-20 21:49:00,25.7,21.8,30.50,SSW,204,0.0,0.0,85,0.00,,,0.00,Wunderground v.1.15,2013-01-21 04:49:00,
2013-01-20 21:55:00,25.8,21.9,30.50,SSW,204,0.0,0.0,85,0.00,,,0.00,Wunderground v.1.15,2013-01-21 04:55:00,
2013-01-20 22:03:00,25.8,22.2,30.50,SSW,204,0.0,0.0,86,0.00,,,0.00,Wunderground v.1.15,2013-01-21 05:03:00,
2013-01-20 22:05:00,25.8,22.2,30.49,SSW,204,0.0,0.0,86,0.00,,,0.00,Wunderground v.1.15,2013-01-21 05:05:00,
2013-01-20 22:10:00,25.7,22.1,30.49,SSW,204,0.0,0.0,86,0.00,,,0.00,Wunderground v.1.15,2013-01-21 05:10:00,
2013-01-20 22:14:00,25.6,22.0,30.50,SSW,204,0.0,0.0,86,0.00,,,0.00,Wunderground v.1.15,2013-01-21 05:14:00,
2013-01-20 22:20:00,25.5,21.9,30.50,SSW,204,0.0,0.0,86,0.00,,,0.00,Wunderground v.1.15,2013-01-21 05:20:00,
2013-01-20 22:26:00,25.4,21.8,30.50,SSW,204,0.0,0.0,86,0.00,,,0.00,Wunderground v.1.15,2013-01-21 05:26:00,
2013-01-20 22:31:00,25.3,21.7,30.50,SSW,204,0.0,0.0,86,0.00,,,0.00,Wunderground v.1.15,2013-01-21 05:31:00,
2013-01-20 22:37:00,25.2,21.6,30.50,SSW,203,0.0,0.0,86,0.00,,,0.00,Wunderground v.1.15,2013-01-21 05:37:00,
2013-01-20 22:43:00,25.2,21.6,30.49,SSW,204,0.0,0.0,86,0.00,,,0.00,Wunderground v.1.15,2013-01-21 05:43:00,
2013-01-20 22:49:00,25.2,21.6,30.49,SSW,204,0.0,0.0,86,0.00,,,0.00,Wunderground v.1.15,2013-01-21 05:49:00,
2013-01-20 22:55:00,25.2,21.6,30.49,SSW,204,0.0,0.0,86,0.00,,,0.00,Wunderground v.1.15,2013-01-21 05:55:00,
2013-01-20 23:01:00,25.2,21.6,30.49,SSW,203,0.0,0.0,86,0.00,,,0.00,Wunderground v.1.15,2013-01-21 06:01:00,
2013-01-20 23:07:00,25.2,21.6,30.49,SSW,204,0.0,0.0,86,0.00,,,0.00,Wunderground v.1.15,2013-01-21 06:07:00,
2013-01-20 23:12:00,25.1,21.2,30.49,SSW,204,0.0,0.0,85,0.00,,,0.00,Wunderground v.1.15,2013-01-21 06:12:00,
2013-01-20 23:18:00,24.9,21.3,30.49,SSW,203,0.0,0.0,86,0.00,,,0.00,Wunderground v.1.15,2013-01-21 06:18:00,
2013-01-20 23:23:00,24.9,21.3,30.49,SSW,204,0.0,0.0,86,0.00,,,0.00,Wunderground v.1.15,2013-01-21 06:23:00,
2013-01-20 23:29:00,24.9,21.3,30.49,SSW,204,0.0,0.0,86,0.00,,,0.00,Wunderground v.1.15,2013-01-21 06:29:00,
2013-01-20 23:34:00,24.9,21.3,30.49,SSW,204,0.0,0.0,86,0.00,,,0.00,Wunderground v.1.15,2013-01-21 06:34:00,
2013-01-20 23:40:00,24.9,21.3,30.49,SSW,204,0.0,0.0,86,0.00,,,0.00,Wunderground v.1.15,2013-01-21 06:40:00,
2013-01-20 23:46:00,24.9,21.6,30.49,SSW,204,0.0,0.0,87,0.00,,,0.00,Wunderground v.1.15,2013-01-21 06:46:00,
2013-01-20 23:52:00,24.9,21.6,30.49,SSW,204,0.0,0.0,87,0.00,,,0.00,Wunderground v.1.15,2013-01-21 06:52:00,
2013-01-20 23:57:00,24.9,21.6,30.48,SSW,204,0.0,0.0,87,0.00,,,0.00,Wunderground v.1.15,2013-01-21 06:57:00,